sensor_id;sensor_type;location;lat;lon;timestamp;pressure;altitude;pressure_sealevel;temperature;humidity
81704;BME280;71117;52.352;4.808;2023-08-21T00:01:37;102418.59;;;14.28;93.94
81704;BME280;71117;52.352;4.808;2023-08-21T00:04:03;102419.44;;;14.27;94.17
81704;BME280;71117;52.352;4.808;2023-08-21T00:06:28;102415.78;;;14.23;93.12
81704;BME280;71117;52.352;4.808;2023-08-21T00:08:54;102420.16;;;14.20;93.83
81704;BME280;71117;52.352;4.808;2023-08-21T00:11:19;102415.72;;;14.20;94.50
81704;BME280;71117;52.352;4.808;2023-08-21T00:13:45;102420.06;;;14.18;94.19
81704;BME280;71117;52.352;4.808;2023-08-21T00:16:13;102420.25;;;14.24;94.36
81704;BME280;71117;52.352;4.808;2023-08-21T00:18:38;102421.38;;;14.33;93.77
81704;BME280;71117;52.352;4.808;2023-08-21T00:21:04;102420.09;;;14.50;92.94
81704;BME280;71117;52.352;4.808;2023-08-21T00:23:29;102428.94;;;14.49;92.76
81704;BME280;71117;52.352;4.808;2023-08-21T00:25:54;102420.06;;;14.48;92.85
81704;BME280;71117;52.352;4.808;2023-08-21T00:28:20;102419.28;;;14.52;92.70
81704;BME280;71117;52.352;4.808;2023-08-21T00:30:45;102426.50;;;14.58;92.60
81704;BME280;71117;52.352;4.808;2023-08-21T00:33:10;102420.47;;;14.64;92.44
81704;BME280;71117;52.352;4.808;2023-08-21T00:35:35;102417.03;;;14.68;91.77
81704;BME280;71117;52.352;4.808;2023-08-21T00:38:01;102414.34;;;14.66;91.11
81704;BME280;71117;52.352;4.808;2023-08-21T00:40:26;102423.97;;;14.63;91.62
81704;BME280;71117;52.352;4.808;2023-08-21T00:42:51;102420.44;;;14.62;91.27
81704;BME280;71117;52.352;4.808;2023-08-21T00:45:17;102418.69;;;14.64;91.01
81704;BME280;71117;52.352;4.808;2023-08-21T00:47:43;102418.47;;;14.55;90.89
81704;BME280;71117;52.352;4.808;2023-08-21T00:50:09;102417.47;;;14.51;91.30
81704;BME280;71117;52.352;4.808;2023-08-21T00:52:38;102411.97;;;14.45;91.33
81704;BME280;71117;52.352;4.808;2023-08-21T00:55:06;102410.97;;;14.42;91.98
81704;BME280;71117;52.352;4.808;2023-08-21T00:57:31;102415.31;;;14.37;91.77
81704;BME280;71117;52.352;4.808;2023-08-21T00:59:57;102411.63;;;14.32;92.02
81704;BME280;71117;52.352;4.808;2023-08-21T01:02:22;102413.16;;;14.25;91.92
81704;BME280;71117;52.352;4.808;2023-08-21T01:04:48;102417.38;;;14.17;91.50
81704;BME280;71117;52.352;4.808;2023-08-21T01:07:14;102417.19;;;14.09;91.58
81704;BME280;71117;52.352;4.808;2023-08-21T01:09:49;102415.25;;;14.03;92.07
81704;BME280;71117;52.352;4.808;2023-08-21T01:12:26;102415.91;;;13.96;92.01
81704;BME280;71117;52.352;4.808;2023-08-21T01:15:02;102423.69;;;13.90;92.26
81704;BME280;71117;52.352;4.808;2023-08-21T01:17:29;102425.38;;;13.87;93.29
81704;BME280;71117;52.352;4.808;2023-08-21T01:19:55;102418.47;;;13.92;92.91
81704;BME280;71117;52.352;4.808;2023-08-21T01:22:46;102420.97;;;13.87;93.00
81704;BME280;71117;52.352;4.808;2023-08-21T01:25:11;102418.19;;;13.83;92.98
81704;BME280;71117;52.352;4.808;2023-08-21T01:27:39;102420.84;;;13.83;93.16
81704;BME280;71117;52.352;4.808;2023-08-21T01:30:05;102421.53;;;13.77;92.84
81704;BME280;71117;52.352;4.808;2023-08-21T01:35:15;102424.16;;;13.75;93.54
81704;BME280;71117;52.352;4.808;2023-08-21T01:37:42;102422.31;;;13.73;93.41
81704;BME280;71117;52.352;4.808;2023-08-21T01:40:08;102427.56;;;13.71;94.05
81704;BME280;71117;52.352;4.808;2023-08-21T01:42:33;102425.66;;;13.67;93.35
81704;BME280;71117;52.352;4.808;2023-08-21T01:44:59;102419.47;;;13.67;92.66
81704;BME280;71117;52.352;4.808;2023-08-21T01:47:24;102422.09;;;13.65;93.28
81704;BME280;71117;52.352;4.808;2023-08-21T01:49:49;102423.69;;;13.60;92.88
81704;BME280;71117;52.352;4.808;2023-08-21T01:52:17;102423.53;;;13.56;92.91
81704;BME280;71117;52.352;4.808;2023-08-21T01:54:43;102419.88;;;13.52;92.63
81704;BME280;71117;52.352;4.808;2023-08-21T01:57:08;102423.53;;;13.56;93.86
81704;BME280;71117;52.352;4.808;2023-08-21T01:59:33;102426.38;;;13.62;94.46
81704;BME280;71117;52.352;4.808;2023-08-21T02:01:59;102423.69;;;13.60;93.69
81704;BME280;71117;52.352;4.808;2023-08-21T02:04:24;102430.03;;;13.65;94.85
81704;BME280;71117;52.352;4.808;2023-08-21T02:06:49;102431.94;;;13.69;93.58
81704;BME280;71117;52.352;4.808;2023-08-21T02:09:15;102431.28;;;13.76;93.75
81704;BME280;71117;52.352;4.808;2023-08-21T02:11:40;102434.81;;;13.77;93.83
81704;BME280;71117;52.352;4.808;2023-08-21T02:14:05;102431.41;;;13.81;94.54
81704;BME280;71117;52.352;4.808;2023-08-21T02:16:32;102426.34;;;13.90;94.14
81704;BME280;71117;52.352;4.808;2023-08-21T02:18:57;102427.22;;;13.89;93.86
81704;BME280;71117;52.352;4.808;2023-08-21T02:21:23;102433.72;;;13.99;93.51
81704;BME280;71117;52.352;4.808;2023-08-21T02:23:48;102435.31;;;13.94;93.49
81704;BME280;71117;52.352;4.808;2023-08-21T02:26:14;102432.66;;;13.94;94.24
81704;BME280;71117;52.352;4.808;2023-08-21T02:28:39;102429.97;;;13.92;93.02
81704;BME280;71117;52.352;4.808;2023-08-21T02:31:04;102434.91;;;13.80;93.44
81704;BME280;71117;52.352;4.808;2023-08-21T02:33:30;102430.19;;;13.70;93.48
81704;BME280;71117;52.352;4.808;2023-08-21T02:35:56;102430.97;;;13.67;94.24
81704;BME280;71117;52.352;4.808;2023-08-21T02:38:21;102425.41;;;13.58;93.63
81704;BME280;71117;52.352;4.808;2023-08-21T02:40:47;102435.03;;;13.55;93.47
81704;BME280;71117;52.352;4.808;2023-08-21T02:43:12;102427.81;;;13.50;94.08
81704;BME280;71117;52.352;4.808;2023-08-21T02:45:38;102434.72;;;13.45;93.65
81704;BME280;71117;52.352;4.808;2023-08-21T02:48:03;102435.59;;;13.44;95.10
81704;BME280;71117;52.352;4.808;2023-08-21T02:50:29;102438.28;;;13.46;94.56
81704;BME280;71117;52.352;4.808;2023-08-21T02:52:54;102431.31;;;13.49;95.53
81704;BME280;71117;52.352;4.808;2023-08-21T02:55:20;102427.97;;;13.55;95.67
81704;BME280;71117;52.352;4.808;2023-08-21T02:57:46;102432.34;;;13.53;95.08
81704;BME280;71117;52.352;4.808;2023-08-21T03:00:11;102428.53;;;13.45;95.05
81704;BME280;71117;52.352;4.808;2023-08-21T03:02:37;102427.41;;;13.37;94.38
81704;BME280;71117;52.352;4.808;2023-08-21T03:05:03;102419.28;;;13.32;94.80
81704;BME280;71117;52.352;4.808;2023-08-21T03:07:29;102419.94;;;13.25;94.68
81704;BME280;71117;52.352;4.808;2023-08-21T03:09:54;102417.00;;;13.17;94.59
81704;BME280;71117;52.352;4.808;2023-08-21T03:12:20;102423.00;;;13.12;94.53
81704;BME280;71117;52.352;4.808;2023-08-21T03:14:46;102416.63;;;13.07;94.88
81704;BME280;71117;52.352;4.808;2023-08-21T03:17:11;102419.22;;;13.04;95.09
81704;BME280;71117;52.352;4.808;2023-08-21T03:19:36;102413.75;;;12.99;94.83
81704;BME280;71117;52.352;4.808;2023-08-21T03:22:02;102417.31;;;13.00;95.41
81704;BME280;71117;52.352;4.808;2023-08-21T03:24:28;102416.56;;;13.04;95.51
81704;BME280;71117;52.352;4.808;2023-08-21T03:26:53;102408.75;;;13.08;95.73
81704;BME280;71117;52.352;4.808;2023-08-21T03:29:18;102416.63;;;13.07;95.96
81704;BME280;71117;52.352;4.808;2023-08-21T03:31:48;102410.53;;;13.08;96.54
81704;BME280;71117;52.352;4.808;2023-08-21T03:34:14;102415.81;;;13.08;96.12
81704;BME280;71117;52.352;4.808;2023-08-21T03:36:39;102411.25;;;13.04;96.66
81704;BME280;71117;52.352;4.808;2023-08-21T03:39:04;102410.53;;;13.08;96.51
81704;BME280;71117;52.352;4.808;2023-08-21T03:41:31;102416.91;;;13.14;96.10
81704;BME280;71117;52.352;4.808;2023-08-21T03:43:56;102415.84;;;13.09;95.56
81704;BME280;71117;52.352;4.808;2023-08-21T03:46:21;102418.66;;;13.14;96.41
81704;BME280;71117;52.352;4.808;2023-08-21T03:48:47;102416.94;;;13.16;96.42
81704;BME280;71117;52.352;4.808;2023-08-21T03:51:12;102424.06;;;13.17;97.32
81704;BME280;71117;52.352;4.808;2023-08-21T03:53:37;102415.13;;;13.13;96.38
81704;BME280;71117;52.352;4.808;2023-08-21T03:56:03;102414.84;;;13.06;96.62
81704;BME280;71117;52.352;4.808;2023-08-21T03:58:29;102416.53;;;13.02;96.18
81704;BME280;71117;52.352;4.808;2023-08-21T04:00:54;102414.66;;;13.00;96.73
81704;BME280;71117;52.352;4.808;2023-08-21T04:03:20;102417.25;;;12.98;96.70
81704;BME280;71117;52.352;4.808;2023-08-21T04:05:46;102410.16;;;12.97;96.32
81704;BME280;71117;52.352;4.808;2023-08-21T04:08:11;102413.44;;;12.90;96.60
81704;BME280;71117;52.352;4.808;2023-08-21T04:10:37;102411.59;;;12.87;96.33
81704;BME280;71117;52.352;4.808;2023-08-21T04:13:04;102416.78;;;12.84;96.79
81704;BME280;71117;52.352;4.808;2023-08-21T04:15:30;102418.34;;;12.78;96.06
81704;BME280;71117;52.352;4.808;2023-08-21T04:17:55;102415.72;;;12.79;96.59
81704;BME280;71117;52.352;4.808;2023-08-21T04:20:21;102409.47;;;12.77;96.88
81704;BME280;71117;52.352;4.808;2023-08-21T04:22:47;102414.75;;;12.76;96.22
81704;BME280;71117;52.352;4.808;2023-08-21T04:25:12;102413.78;;;12.74;97.10
81704;BME280;71117;52.352;4.808;2023-08-21T04:27:38;102410.22;;;12.73;96.90
81704;BME280;71117;52.352;4.808;2023-08-21T04:30:04;102406.75;;;12.74;96.97
81704;BME280;71117;52.352;4.808;2023-08-21T04:32:30;102409.28;;;12.71;96.32
81704;BME280;71117;52.352;4.808;2023-08-21T04:34:55;102415.31;;;12.67;96.46
81704;BME280;71117;52.352;4.808;2023-08-21T04:37:21;102416.22;;;12.67;96.68
81704;BME280;71117;52.352;4.808;2023-08-21T04:39:50;102419.88;;;12.71;96.83
81704;BME280;71117;52.352;4.808;2023-08-21T04:42:16;102424.66;;;12.81;97.63
81704;BME280;71117;52.352;4.808;2023-08-21T04:44:41;102418.69;;;12.88;97.75
81704;BME280;71117;52.352;4.808;2023-08-21T04:47:24;102423.09;;;12.88;97.75
81704;BME280;71117;52.352;4.808;2023-08-21T04:49:51;102415.03;;;12.85;97.68
81704;BME280;71117;52.352;4.808;2023-08-21T04:52:16;102422.97;;;12.85;97.41
81704;BME280;71117;52.352;4.808;2023-08-21T04:54:42;102424.69;;;12.83;96.75
81704;BME280;71117;52.352;4.808;2023-08-21T04:57:07;102423.91;;;12.85;96.90
81704;BME280;71117;52.352;4.808;2023-08-21T04:59:34;102424.91;;;12.89;97.00
81704;BME280;71117;52.352;4.808;2023-08-21T05:02:00;102425.75;;;12.88;97.00
81704;BME280;71117;52.352;4.808;2023-08-21T05:04:25;102429.25;;;12.87;96.70
81704;BME280;71117;52.352;4.808;2023-08-21T05:06:50;102431.91;;;12.87;96.58
81704;BME280;71117;52.352;4.808;2023-08-21T05:09:16;102436.59;;;12.95;97.43
81704;BME280;71117;52.352;4.808;2023-08-21T05:11:41;102434.09;;;13.00;96.77
81704;BME280;71117;52.352;4.808;2023-08-21T05:14:07;102434.28;;;13.05;97.25
81704;BME280;71117;52.352;4.808;2023-08-21T05:16:32;102437.81;;;13.05;96.70
81704;BME280;71117;52.352;4.808;2023-08-21T05:18:58;102435.97;;;13.03;96.68
81704;BME280;71117;52.352;4.808;2023-08-21T05:21:23;102432.50;;;13.05;96.79
81704;BME280;71117;52.352;4.808;2023-08-21T05:23:48;102430.34;;;13.19;97.58
81704;BME280;71117;52.352;4.808;2023-08-21T05:26:14;102436.69;;;13.24;96.89
81704;BME280;71117;52.352;4.808;2023-08-21T05:28:40;102433.25;;;13.27;97.04
81704;BME280;71117;52.352;4.808;2023-08-21T05:31:05;102441.41;;;13.33;97.35
81704;BME280;71117;52.352;4.808;2023-08-21T05:33:31;102435.50;;;13.41;97.39
81704;BME280;71117;52.352;4.808;2023-08-21T05:35:57;102438.72;;;13.60;98.23
81704;BME280;71117;52.352;4.808;2023-08-21T05:38:22;102441.84;;;13.75;98.17
81704;BME280;71117;52.352;4.808;2023-08-21T05:40:48;102437.66;;;13.83;98.50
81704;BME280;71117;52.352;4.808;2023-08-21T05:43:16;102439.94;;;14.01;98.51
81704;BME280;71117;52.352;4.808;2023-08-21T05:45:42;102440.31;;;14.13;98.31
81704;BME280;71117;52.352;4.808;2023-08-21T05:48:07;102444.78;;;14.14;97.55
81704;BME280;71117;52.352;4.808;2023-08-21T05:50:33;102451.09;;;14.19;97.90
81704;BME280;71117;52.352;4.808;2023-08-21T05:52:58;102452.38;;;14.32;97.93
81704;BME280;71117;52.352;4.808;2023-08-21T05:55:26;102454.84;;;14.58;98.05
81704;BME280;71117;52.352;4.808;2023-08-21T05:57:52;102447.34;;;14.74;97.84
81704;BME280;71117;52.352;4.808;2023-08-21T06:00:17;102436.09;;;14.86;97.05
81704;BME280;71117;52.352;4.808;2023-08-21T06:02:43;102440.75;;;14.93;96.75
81704;BME280;71117;52.352;4.808;2023-08-21T06:05:08;102441.72;;;14.97;96.75
81704;BME280;71117;52.352;4.808;2023-08-21T06:07:34;102443.75;;;15.07;96.45
81704;BME280;71117;52.352;4.808;2023-08-21T06:09:59;102444.91;;;15.18;96.01
81704;BME280;71117;52.352;4.808;2023-08-21T06:12:25;102454.16;;;15.34;95.41
81704;BME280;71117;52.352;4.808;2023-08-21T06:14:50;102450.13;;;15.51;93.85
81704;BME280;71117;52.352;4.808;2023-08-21T06:17:15;102445.06;;;15.62;93.23
81704;BME280;71117;52.352;4.808;2023-08-21T06:19:41;102443.69;;;15.79;91.83
81704;BME280;71117;52.352;4.808;2023-08-21T06:22:07;102451.97;;;15.93;91.24
81704;BME280;71117;52.352;4.808;2023-08-21T06:24:32;102456.59;;;16.02;91.00
81704;BME280;71117;52.352;4.808;2023-08-21T06:26:58;102459.41;;;16.08;90.16
81704;BME280;71117;52.352;4.808;2023-08-21T06:29:24;102459.59;;;16.17;90.04
81704;BME280;71117;52.352;4.808;2023-08-21T06:31:49;102453.22;;;16.10;90.20
81704;BME280;71117;52.352;4.808;2023-08-21T06:34:15;102453.28;;;16.12;90.62
81704;BME280;71117;52.352;4.808;2023-08-21T06:36:40;102452.41;;;16.13;90.05
81704;BME280;71117;52.352;4.808;2023-08-21T06:39:05;102451.75;;;16.25;90.23
81704;BME280;71117;52.352;4.808;2023-08-21T06:41:31;102455.44;;;16.33;89.59
81704;BME280;71117;52.352;4.808;2023-08-21T06:43:57;102457.34;;;16.38;89.81
81704;BME280;71117;52.352;4.808;2023-08-21T06:46:22;102449.56;;;16.49;89.66
81704;BME280;71117;52.352;4.808;2023-08-21T06:48:47;102448.28;;;16.74;88.32
81704;BME280;71117;52.352;4.808;2023-08-21T06:51:15;102459.97;;;16.82;88.37
81704;BME280;71117;52.352;4.808;2023-08-21T06:53:40;102450.19;;;16.81;88.63
81704;BME280;71117;52.352;4.808;2023-08-21T06:56:06;102450.41;;;16.93;88.15
81704;BME280;71117;52.352;4.808;2023-08-21T06:58:32;102460.53;;;17.13;87.01
81704;BME280;71117;52.352;4.808;2023-08-21T07:00:57;102447.56;;;17.39;86.20
81704;BME280;71117;52.352;4.808;2023-08-21T07:03:23;102455.81;;;17.54;85.46
81704;BME280;71117;52.352;4.808;2023-08-21T07:05:56;102453.31;;;17.66;85.46
81704;BME280;71117;52.352;4.808;2023-08-21T07:08:25;102458.72;;;17.71;85.54
81704;BME280;71117;52.352;4.808;2023-08-21T07:10:51;102456.38;;;17.91;84.81
81704;BME280;71117;52.352;4.808;2023-08-21T07:13:17;102456.47;;;18.00;84.49
81704;BME280;71117;52.352;4.808;2023-08-21T07:15:43;102454.75;;;18.04;84.38
81704;BME280;71117;52.352;4.808;2023-08-21T07:18:08;102458.53;;;18.21;83.54
81704;BME280;71117;52.352;4.808;2023-08-21T07:20:34;102468.50;;;18.34;82.83
81704;BME280;71117;52.352;4.808;2023-08-21T07:23:00;102460.63;;;18.48;82.65
81704;BME280;71117;52.352;4.808;2023-08-21T07:25:25;102469.66;;;18.58;82.40
81704;BME280;71117;52.352;4.808;2023-08-21T07:27:51;102464.38;;;18.65;82.49
81704;BME280;71117;52.352;4.808;2023-08-21T07:30:20;102464.53;;;18.76;81.92
81704;BME280;71117;52.352;4.808;2023-08-21T07:32:46;102472.50;;;18.73;81.91
81704;BME280;71117;52.352;4.808;2023-08-21T07:35:11;102463.69;;;18.85;82.04
81704;BME280;71117;52.352;4.808;2023-08-21T07:37:36;102464.59;;;18.84;82.03
81704;BME280;71117;52.352;4.808;2023-08-21T07:40:02;102469.19;;;18.98;81.56
81704;BME280;71117;52.352;4.808;2023-08-21T07:42:27;102476.41;;;19.04;81.97
81704;BME280;71117;52.352;4.808;2023-08-21T07:44:53;102464.88;;;19.17;81.05
81704;BME280;71117;52.352;4.808;2023-08-21T07:47:18;102468.53;;;19.27;80.24
81704;BME280;71117;52.352;4.808;2023-08-21T07:49:43;102473.06;;;19.34;80.32
81704;BME280;71117;52.352;4.808;2023-08-21T07:52:09;102481.13;;;19.39;80.57
81704;BME280;71117;52.352;4.808;2023-08-21T07:54:34;102488.38;;;19.50;79.30
81704;BME280;71117;52.352;4.808;2023-08-21T07:56:59;102475.84;;;19.52;80.05
81704;BME280;71117;52.352;4.808;2023-08-21T07:59:25;102482.22;;;19.62;78.85
81704;BME280;71117;52.352;4.808;2023-08-21T08:01:51;102484.06;;;19.71;78.37
81704;BME280;71117;52.352;4.808;2023-08-21T08:04:16;102477.84;;;19.79;77.72
81704;BME280;71117;52.352;4.808;2023-08-21T08:06:41;102490.41;;;19.82;77.79
81704;BME280;71117;52.352;4.808;2023-08-21T08:09:07;102485.00;;;19.79;77.75
81704;BME280;71117;52.352;4.808;2023-08-21T08:11:32;102486.91;;;19.98;77.79
81704;BME280;71117;52.352;4.808;2023-08-21T08:13:58;102486.03;;;20.05;77.60
81704;BME280;71117;52.352;4.808;2023-08-21T08:16:24;102482.47;;;20.08;77.30
81704;BME280;71117;52.352;4.808;2023-08-21T08:18:49;102485.22;;;20.25;76.48
81704;BME280;71117;52.352;4.808;2023-08-21T08:21:14;102480.81;;;20.38;76.26
81704;BME280;71117;52.352;4.808;2023-08-21T08:23:40;102477.28;;;20.46;74.56
81704;BME280;71117;52.352;4.808;2023-08-21T08:26:05;102477.31;;;20.57;73.86
81704;BME280;71117;52.352;4.808;2023-08-21T08:28:31;102480.88;;;20.53;73.70
81704;BME280;71117;52.352;4.808;2023-08-21T08:30:56;102480.91;;;20.62;74.85
81704;BME280;71117;52.352;4.808;2023-08-21T08:33:23;102482.72;;;20.66;74.78
81704;BME280;71117;52.352;4.808;2023-08-21T08:35:48;102487.22;;;20.82;74.21
81704;BME280;71117;52.352;4.808;2023-08-21T08:38:14;102485.44;;;20.91;74.65
81704;BME280;71117;52.352;4.808;2023-08-21T08:40:45;102480.94;;;20.97;74.10
81704;BME280;71117;52.352;4.808;2023-08-21T08:43:14;102473.78;;;20.92;74.94
81704;BME280;71117;52.352;4.808;2023-08-21T08:45:41;102471.09;;;21.14;74.06
81704;BME280;71117;52.352;4.808;2023-08-21T08:48:07;102477.38;;;21.21;73.78
81704;BME280;71117;52.352;4.808;2023-08-21T08:50:34;102476.47;;;21.19;72.53
81704;BME280;71117;52.352;4.808;2023-08-21T08:53:00;102481.00;;;21.29;72.50
81704;BME280;71117;52.352;4.808;2023-08-21T08:55:26;102485.47;;;21.38;72.38
81704;BME280;71117;52.352;4.808;2023-08-21T08:57:55;102484.56;;;21.56;71.15
81704;BME280;71117;52.352;4.808;2023-08-21T09:00:20;102484.53;;;21.67;70.64
81704;BME280;71117;52.352;4.808;2023-08-21T09:02:47;102490.75;;;21.82;69.32
81704;BME280;71117;52.352;4.808;2023-08-21T09:05:13;102490.72;;;22.10;67.65
81704;BME280;71117;52.352;4.808;2023-08-21T09:07:39;102484.28;;;22.38;67.08
81704;BME280;71117;52.352;4.808;2023-08-21T09:10:05;102489.69;;;22.38;67.59
81704;BME280;71117;52.352;4.808;2023-08-21T09:12:38;102493.16;;;22.60;68.51
81704;BME280;71117;52.352;4.808;2023-08-21T09:15:07;102489.38;;;22.96;67.82
81704;BME280;71117;52.352;4.808;2023-08-21T09:17:33;102498.38;;;22.86;67.40
81704;BME280;71117;52.352;4.808;2023-08-21T09:20:04;102483.13;;;22.87;66.24
81704;BME280;71117;52.352;4.808;2023-08-21T09:22:29;102480.25;;;23.11;66.85
81704;BME280;71117;52.352;4.808;2023-08-21T09:25:08;102485.47;;;23.31;64.12
81704;BME280;71117;52.352;4.808;2023-08-21T09:27:36;102476.50;;;23.31;66.36
81704;BME280;71117;52.352;4.808;2023-08-21T09:30:08;102480.25;;;23.11;64.97
81704;BME280;71117;52.352;4.808;2023-08-21T09:32:54;102482.06;;;23.09;62.06
81704;BME280;71117;52.352;4.808;2023-08-21T09:35:23;102478.25;;;23.36;63.36
81704;BME280;71117;52.352;4.808;2023-08-21T09:37:49;102471.53;;;23.79;60.57
81704;BME280;71117;52.352;4.808;2023-08-21T09:40:18;102471.16;;;24.11;59.80
81704;BME280;71117;52.352;4.808;2023-08-21T09:42:43;102476.94;;;24.51;59.10
81704;BME280;71117;52.352;4.808;2023-08-21T09:45:09;102467.44;;;24.84;60.06
81704;BME280;71117;52.352;4.808;2023-08-21T09:47:36;102463.50;;;25.06;59.03
81704;BME280;71117;52.352;4.808;2023-08-21T09:50:03;102463.09;;;25.31;55.84
81704;BME280;71117;52.352;4.808;2023-08-21T09:52:30;102456.25;;;25.58;56.57
81704;BME280;71117;52.352;4.808;2023-08-21T09:54:57;102456.75;;;25.81;56.79
81704;BME280;71117;52.352;4.808;2023-08-21T09:57:23;102463.75;;;25.93;55.22
81704;BME280;71117;52.352;4.808;2023-08-21T09:59:52;102460.56;;;26.15;53.47
81704;BME280;71117;52.352;4.808;2023-08-21T10:02:18;102456.06;;;26.14;52.89
81704;BME280;71117;52.352;4.808;2023-08-21T10:04:45;102456.63;;;26.29;50.76
81704;BME280;71117;52.352;4.808;2023-08-21T10:07:11;102463.31;;;26.13;52.89
81704;BME280;71117;52.352;4.808;2023-08-21T10:09:39;102463.31;;;26.55;54.17
81704;BME280;71117;52.352;4.808;2023-08-21T10:12:08;102458.53;;;26.66;52.84
81704;BME280;71117;52.352;4.808;2023-08-21T10:14:34;102457.53;;;26.70;52.17
81704;BME280;71117;52.352;4.808;2023-08-21T10:17:00;102466.69;;;26.66;52.79
81704;BME280;71117;52.352;4.808;2023-08-21T10:19:32;102466.56;;;26.29;50.50
81704;BME280;71117;52.352;4.808;2023-08-21T10:21:58;102461.50;;;26.55;49.81
81704;BME280;71117;52.352;4.808;2023-08-21T10:26:53;102461.25;;;26.24;49.35
81704;BME280;71117;52.352;4.808;2023-08-21T10:29:19;102468.16;;;25.97;51.49
81704;BME280;71117;52.352;4.808;2023-08-21T10:31:45;102471.81;;;25.95;51.13
81704;BME280;71117;52.352;4.808;2023-08-21T10:34:13;102467.16;;;26.45;47.93
81704;BME280;71117;52.352;4.808;2023-08-21T10:41:54;102460.72;;;25.11;48.37
81704;BME280;71117;52.352;4.808;2023-08-21T10:44:47;102467.88;;;26.11;48.10
81704;BME280;71117;52.352;4.808;2023-08-21T10:49:58;102467.47;;;27.08;45.25
81704;BME280;71117;52.352;4.808;2023-08-21T10:52:26;102467.19;;;27.53;44.96
81704;BME280;71117;52.352;4.808;2023-08-21T10:54:59;102461.53;;;28.25;42.60
81704;BME280;71117;52.352;4.808;2023-08-21T10:57:27;102455.69;;;28.66;42.25
81704;BME280;71117;52.352;4.808;2023-08-21T10:59:57;102454.75;;;28.97;41.61
81704;BME280;71117;52.352;4.808;2023-08-21T11:02:27;102449.53;;;29.42;39.37
81704;BME280;71117;52.352;4.808;2023-08-21T11:04:54;102456.16;;;29.35;37.41
81704;BME280;71117;52.352;4.808;2023-08-21T11:07:20;102466.28;;;29.57;39.92
81704;BME280;71117;52.352;4.808;2023-08-21T11:09:47;102468.66;;;30.16;40.11
81704;BME280;71117;52.352;4.808;2023-08-21T11:12:15;102462.75;;;30.03;38.71
81704;BME280;71117;52.352;4.808;2023-08-21T11:14:40;102467.00;;;30.57;35.61
81704;BME280;71117;52.352;4.808;2023-08-21T11:17:08;102460.00;;;30.73;35.95
81704;BME280;71117;52.352;4.808;2023-08-21T11:19:34;102467.31;;;30.49;35.30
81704;BME280;71117;52.352;4.808;2023-08-21T11:22:00;102453.53;;;30.98;33.41
81704;BME280;71117;52.352;4.808;2023-08-21T11:24:30;102463.28;;;31.25;34.92
81704;BME280;71117;52.352;4.808;2023-08-21T11:26:57;102463.28;;;31.25;37.25
81704;BME280;71117;52.352;4.808;2023-08-21T11:29:23;102468.28;;;31.77;34.24
81704;BME280;71117;52.352;4.808;2023-08-21T11:31:48;102465.88;;;31.69;32.33
81704;BME280;71117;52.352;4.808;2023-08-21T11:34:18;102459.22;;;30.48;35.03
81704;BME280;71117;52.352;4.808;2023-08-21T11:36:44;102456.81;;;31.06;35.22
81704;BME280;71117;52.352;4.808;2023-08-21T11:39:09;102460.75;;;30.99;34.33
81704;BME280;71117;52.352;4.808;2023-08-21T11:41:53;102469.31;;;31.33;34.87
81704;BME280;71117;52.352;4.808;2023-08-21T11:44:18;102461.03;;;31.96;31.56
81704;BME280;71117;52.352;4.808;2023-08-21T11:46:44;102471.78;;;31.60;31.64
81704;BME280;71117;52.352;4.808;2023-08-21T11:49:10;102466.25;;;31.62;32.25
81704;BME280;71117;52.352;4.808;2023-08-21T11:51:39;102469.75;;;32.04;30.57
81704;BME280;71117;52.352;4.808;2023-08-21T11:54:05;102468.00;;;32.79;33.70
81704;BME280;71117;52.352;4.808;2023-08-21T11:56:31;102471.41;;;32.84;30.06
81704;BME280;71117;52.352;4.808;2023-08-21T11:58:56;102475.16;;;32.81;31.75
81704;BME280;71117;52.352;4.808;2023-08-21T12:01:24;102479.19;;;32.74;29.73
81704;BME280;71117;52.352;4.808;2023-08-21T12:03:50;102472.84;;;33.27;30.35
81704;BME280;71117;52.352;4.808;2023-08-21T12:06:21;102470.41;;;33.21;31.69
81704;BME280;71117;52.352;4.808;2023-08-21T12:08:47;102463.78;;;33.44;30.42
81704;BME280;71117;52.352;4.808;2023-08-21T12:11:12;102465.84;;;33.74;33.64
81704;BME280;71117;52.352;4.808;2023-08-21T12:13:38;102465.97;;;34.70;29.43
81704;BME280;71117;52.352;4.808;2023-08-21T12:16:04;102442.56;;;34.31;29.87
81704;BME280;71117;52.352;4.808;2023-08-21T12:18:29;102447.09;;;33.99;28.33
81704;BME280;71117;52.352;4.808;2023-08-21T12:20:55;102449.13;;;34.76;29.99
81704;BME280;71117;52.352;4.808;2023-08-21T12:23:20;102454.78;;;35.05;28.12
81704;BME280;71117;52.352;4.808;2023-08-21T12:25:46;102454.69;;;33.94;29.49
81704;BME280;71117;52.352;4.808;2023-08-21T12:28:11;102451.22;;;34.39;30.13
81704;BME280;71117;52.352;4.808;2023-08-21T12:30:37;102452.50;;;34.97;28.25
81704;BME280;71117;52.352;4.808;2023-08-21T12:33:03;102451.03;;;35.66;26.10
81704;BME280;71117;52.352;4.808;2023-08-21T12:35:28;102451.41;;;35.74;29.88
81704;BME280;71117;52.352;4.808;2023-08-21T12:37:56;102459.78;;;34.17;28.70
81704;BME280;71117;52.352;4.808;2023-08-21T12:40:22;102464.16;;;34.37;27.91
81704;BME280;71117;52.352;4.808;2023-08-21T12:42:47;102463.75;;;33.96;30.45
81704;BME280;71117;52.352;4.808;2023-08-21T12:45:13;102465.53;;;34.13;29.72
81704;BME280;71117;52.352;4.808;2023-08-21T12:47:38;102466.38;;;34.62;30.21
81704;BME280;71117;52.352;4.808;2023-08-21T12:50:05;102460.75;;;34.16;29.08
81704;BME280;71117;52.352;4.808;2023-08-21T12:52:30;102450.09;;;34.75;27.69
81704;BME280;71117;52.352;4.808;2023-08-21T12:54:56;102453.88;;;33.92;28.24
81704;BME280;71117;52.352;4.808;2023-08-21T12:57:21;102457.88;;;33.69;30.39
81704;BME280;71117;52.352;4.808;2023-08-21T12:59:47;102452.13;;;34.24;28.30